sensor_id;sensor_type;location;lat;lon;timestamp;temperature;humidity
62259;DHT22;48241;48.824;10.102;2023-08-31T00:00:29;15.60;99.90
62259;DHT22;48241;48.824;10.102;2023-08-31T00:02:55;15.70;99.90
62259;DHT22;48241;48.824;10.102;2023-08-31T00:05:20;16.00;99.90
62259;DHT22;48241;48.824;10.102;2023-08-31T00:07:46;15.80;99.90
62259;DHT22;48241;48.824;10.102;2023-08-31T00:10:12;16.10;99.90
62259;DHT22;48241;48.824;10.102;2023-08-31T00:12:37;15.90;99.90
62259;DHT22;48241;48.824;10.102;2023-08-31T00:15:03;16.10;99.90
62259;DHT22;48241;48.824;10.102;2023-08-31T00:17:32;16.10;99.90
62259;DHT22;48241;48.824;10.102;2023-08-31T00:19:58;16.20;99.90
62259;DHT22;48241;48.824;10.102;2023-08-31T00:22:23;16.40;99.90
62259;DHT22;48241;48.824;10.102;2023-08-31T00:24:49;16.20;99.90
62259;DHT22;48241;48.824;10.102;2023-08-31T00:27:16;15.90;99.90
62259;DHT22;48241;48.824;10.102;2023-08-31T00:29:43;15.70;99.90
62259;DHT22;48241;48.824;10.102;2023-08-31T00:32:11;15.50;99.90
62259;DHT22;48241;48.824;10.102;2023-08-31T00:34:36;15.40;99.90
62259;DHT22;48241;48.824;10.102;2023-08-31T00:37:03;15.60;99.90
62259;DHT22;48241;48.824;10.102;2023-08-31T00:39:28;15.30;99.90
62259;DHT22;48241;48.824;10.102;2023-08-31T00:41:54;15.00;99.90
62259;DHT22;48241;48.824;10.102;2023-08-31T00:44:19;15.40;99.90
62259;DHT22;48241;48.824;10.102;2023-08-31T00:46:45;15.40;99.90
62259;DHT22;48241;48.824;10.102;2023-08-31T00:49:11;15.30;99.90
62259;DHT22;48241;48.824;10.102;2023-08-31T00:51:37;15.10;99.90
62259;DHT22;48241;48.824;10.102;2023-08-31T00:54:03;15.00;99.90
62259;DHT22;48241;48.824;10.102;2023-08-31T00:56:31;15.10;99.60
62259;DHT22;48241;48.824;10.102;2023-08-31T00:58:56;15.00;99.60
62259;DHT22;48241;48.824;10.102;2023-08-31T01:01:43;15.20;99.60
62259;DHT22;48241;48.824;10.102;2023-08-31T01:12:50;15.00;99.90
62259;DHT22;48241;48.824;10.102;2023-08-31T01:15:17;14.90;99.80
62259;DHT22;48241;48.824;10.102;2023-08-31T01:17:48;15.30;99.90
62259;DHT22;48241;48.824;10.102;2023-08-31T01:20:19;14.80;99.90
62259;DHT22;48241;48.824;10.102;2023-08-31T01:22:55;14.80;99.90
62259;DHT22;48241;48.824;10.102;2023-08-31T01:25:21;14.80;99.90
62259;DHT22;48241;48.824;10.102;2023-08-31T01:27:47;14.90;99.90
62259;DHT22;48241;48.824;10.102;2023-08-31T01:30:12;14.70;99.90
62259;DHT22;48241;48.824;10.102;2023-08-31T01:32:43;14.70;99.90
62259;DHT22;48241;48.824;10.102;2023-08-31T01:35:10;14.80;99.70
62259;DHT22;48241;48.824;10.102;2023-08-31T01:37:47;14.70;99.30
62259;DHT22;48241;48.824;10.102;2023-08-31T01:42:47;14.20;99.90
62259;DHT22;48241;48.824;10.102;2023-08-31T01:45:18;14.10;99.90
62259;DHT22;48241;48.824;10.102;2023-08-31T01:47:46;14.00;99.90
62259;DHT22;48241;48.824;10.102;2023-08-31T01:50:11;13.90;99.90
62259;DHT22;48241;48.824;10.102;2023-08-31T01:52:37;13.90;99.90
62259;DHT22;48241;48.824;10.102;2023-08-31T01:55:03;13.90;99.90
62259;DHT22;48241;48.824;10.102;2023-08-31T01:57:29;13.70;99.90
62259;DHT22;48241;48.824;10.102;2023-08-31T01:59:55;14.10;99.90
62259;DHT22;48241;48.824;10.102;2023-08-31T02:02:20;14.00;99.90
62259;DHT22;48241;48.824;10.102;2023-08-31T02:04:46;14.00;99.90
62259;DHT22;48241;48.824;10.102;2023-08-31T02:07:11;13.90;99.90
62259;DHT22;48241;48.824;10.102;2023-08-31T02:09:37;14.00;99.90
62259;DHT22;48241;48.824;10.102;2023-08-31T02:12:03;13.80;99.90
62259;DHT22;48241;48.824;10.102;2023-08-31T02:14:30;13.80;99.90
62259;DHT22;48241;48.824;10.102;2023-08-31T02:16:55;13.60;99.90
62259;DHT22;48241;48.824;10.102;2023-08-31T02:19:21;13.70;99.90
62259;DHT22;48241;48.824;10.102;2023-08-31T02:21:47;13.60;99.90
62259;DHT22;48241;48.824;10.102;2023-08-31T02:24:13;13.70;99.90
62259;DHT22;48241;48.824;10.102;2023-08-31T02:26:38;13.90;99.90
62259;DHT22;48241;48.824;10.102;2023-08-31T02:29:04;13.70;99.90
62259;DHT22;48241;48.824;10.102;2023-08-31T02:31:30;13.70;99.90
62259;DHT22;48241;48.824;10.102;2023-08-31T02:33:55;13.80;99.90
62259;DHT22;48241;48.824;10.102;2023-08-31T02:36:21;13.90;99.90
62259;DHT22;48241;48.824;10.102;2023-08-31T02:38:47;13.90;99.90
62259;DHT22;48241;48.824;10.102;2023-08-31T02:41:12;13.70;99.90
62259;DHT22;48241;48.824;10.102;2023-08-31T02:43:39;13.80;99.90
62259;DHT22;48241;48.824;10.102;2023-08-31T02:46:04;13.90;99.90
62259;DHT22;48241;48.824;10.102;2023-08-31T02:48:32;13.70;99.90
62259;DHT22;48241;48.824;10.102;2023-08-31T02:50:59;13.70;99.90
62259;DHT22;48241;48.824;10.102;2023-08-31T02:53:27;13.70;99.90
62259;DHT22;48241;48.824;10.102;2023-08-31T02:55:53;13.90;99.90
62259;DHT22;48241;48.824;10.102;2023-08-31T02:58:18;13.70;99.90
62259;DHT22;48241;48.824;10.102;2023-08-31T03:00:45;13.80;99.90
62259;DHT22;48241;48.824;10.102;2023-08-31T03:03:16;14.00;99.90
62259;DHT22;48241;48.824;10.102;2023-08-31T03:05:43;13.70;99.90
62259;DHT22;48241;48.824;10.102;2023-08-31T03:08:09;14.00;99.90
62259;DHT22;48241;48.824;10.102;2023-08-31T03:10:36;13.70;99.90
62259;DHT22;48241;48.824;10.102;2023-08-31T03:13:01;13.70;99.90
62259;DHT22;48241;48.824;10.102;2023-08-31T03:15:27;13.60;99.90
62259;DHT22;48241;48.824;10.102;2023-08-31T03:17:53;13.80;99.90
62259;DHT22;48241;48.824;10.102;2023-08-31T03:20:18;13.80;99.90
62259;DHT22;48241;48.824;10.102;2023-08-31T03:22:44;13.70;99.90
62259;DHT22;48241;48.824;10.102;2023-08-31T03:25:10;13.80;99.90
62259;DHT22;48241;48.824;10.102;2023-08-31T03:27:35;14.00;99.90
62259;DHT22;48241;48.824;10.102;2023-08-31T03:30:01;14.20;99.90
62259;DHT22;48241;48.824;10.102;2023-08-31T03:32:28;14.10;99.90
62259;DHT22;48241;48.824;10.102;2023-08-31T03:34:54;14.00;99.90
62259;DHT22;48241;48.824;10.102;2023-08-31T03:37:19;14.10;99.90
62259;DHT22;48241;48.824;10.102;2023-08-31T03:39:47;14.10;99.90
62259;DHT22;48241;48.824;10.102;2023-08-31T03:42:13;14.20;99.90
62259;DHT22;48241;48.824;10.102;2023-08-31T03:44:39;14.30;99.90
62259;DHT22;48241;48.824;10.102;2023-08-31T03:47:04;14.30;99.90
62259;DHT22;48241;48.824;10.102;2023-08-31T03:49:30;14.20;99.90
62259;DHT22;48241;48.824;10.102;2023-08-31T03:51:57;14.20;99.90
62259;DHT22;48241;48.824;10.102;2023-08-31T03:54:23;14.30;99.90
62259;DHT22;48241;48.824;10.102;2023-08-31T03:56:48;14.40;99.90
62259;DHT22;48241;48.824;10.102;2023-08-31T03:59:14;14.50;99.90
62259;DHT22;48241;48.824;10.102;2023-08-31T04:01:39;14.40;99.70
62259;DHT22;48241;48.824;10.102;2023-08-31T04:04:05;14.50;99.60
62259;DHT22;48241;48.824;10.102;2023-08-31T04:06:31;14.00;99.90
62259;DHT22;48241;48.824;10.102;2023-08-31T04:08:57;14.00;99.90
62259;DHT22;48241;48.824;10.102;2023-08-31T04:11:22;13.80;99.90
62259;DHT22;48241;48.824;10.102;2023-08-31T04:13:48;13.90;99.90
62259;DHT22;48241;48.824;10.102;2023-08-31T04:16:14;14.20;99.90
62259;DHT22;48241;48.824;10.102;2023-08-31T04:18:39;14.00;99.90
62259;DHT22;48241;48.824;10.102;2023-08-31T04:21:05;14.10;99.90
62259;DHT22;48241;48.824;10.102;2023-08-31T04:23:31;14.00;99.90
62259;DHT22;48241;48.824;10.102;2023-08-31T04:25:57;14.10;99.90
62259;DHT22;48241;48.824;10.102;2023-08-31T04:28:23;14.00;99.90
62259;DHT22;48241;48.824;10.102;2023-08-31T04:30:49;13.90;99.90
62259;DHT22;48241;48.824;10.102;2023-08-31T04:33:15;14.00;99.90
62259;DHT22;48241;48.824;10.102;2023-08-31T04:35:41;13.90;99.70
62259;DHT22;48241;48.824;10.102;2023-08-31T04:38:07;13.80;99.90
62259;DHT22;48241;48.824;10.102;2023-08-31T04:40:32;13.90;99.70
62259;DHT22;48241;48.824;10.102;2023-08-31T04:42:58;13.80;99.80
62259;DHT22;48241;48.824;10.102;2023-08-31T04:45:23;13.50;99.90
62259;DHT22;48241;48.824;10.102;2023-08-31T04:47:49;13.60;99.90
62259;DHT22;48241;48.824;10.102;2023-08-31T04:50:16;13.90;99.90
62259;DHT22;48241;48.824;10.102;2023-08-31T04:52:42;14.00;99.90
62259;DHT22;48241;48.824;10.102;2023-08-31T04:55:08;14.20;99.90
62259;DHT22;48241;48.824;10.102;2023-08-31T04:57:34;14.10;99.90
62259;DHT22;48241;48.824;10.102;2023-08-31T05:00:00;14.10;99.90
62259;DHT22;48241;48.824;10.102;2023-08-31T05:02:25;14.10;99.90
62259;DHT22;48241;48.824;10.102;2023-08-31T05:04:51;14.10;99.90
62259;DHT22;48241;48.824;10.102;2023-08-31T05:07:17;14.30;99.90
62259;DHT22;48241;48.824;10.102;2023-08-31T05:09:42;14.10;99.90
62259;DHT22;48241;48.824;10.102;2023-08-31T05:12:08;14.10;99.90
62259;DHT22;48241;48.824;10.102;2023-08-31T05:14:34;14.10;99.90
62259;DHT22;48241;48.824;10.102;2023-08-31T05:17:03;14.10;99.90
62259;DHT22;48241;48.824;10.102;2023-08-31T05:19:30;14.00;99.90
62259;DHT22;48241;48.824;10.102;2023-08-31T05:21:55;14.10;99.90
62259;DHT22;48241;48.824;10.102;2023-08-31T05:24:21;14.50;99.90
62259;DHT22;48241;48.824;10.102;2023-08-31T05:26:47;14.90;99.90
62259;DHT22;48241;48.824;10.102;2023-08-31T05:29:12;14.70;99.90
62259;DHT22;48241;48.824;10.102;2023-08-31T05:31:38;14.80;99.90
62259;DHT22;48241;48.824;10.102;2023-08-31T05:34:03;15.10;99.60
62259;DHT22;48241;48.824;10.102;2023-08-31T05:36:29;14.90;99.50
62259;DHT22;48241;48.824;10.102;2023-08-31T05:38:54;15.10;99.50
62259;DHT22;48241;48.824;10.102;2023-08-31T05:41:20;15.10;99.70
62259;DHT22;48241;48.824;10.102;2023-08-31T05:43:46;15.20;99.20
62259;DHT22;48241;48.824;10.102;2023-08-31T05:46:12;15.40;99.10
62259;DHT22;48241;48.824;10.102;2023-08-31T05:48:37;15.30;97.80
62259;DHT22;48241;48.824;10.102;2023-08-31T05:51:03;15.50;97.60
62259;DHT22;48241;48.824;10.102;2023-08-31T05:53:32;15.40;98.20
62259;DHT22;48241;48.824;10.102;2023-08-31T05:55:59;15.80;97.50
62259;DHT22;48241;48.824;10.102;2023-08-31T05:58:33;15.80;97.50
62259;DHT22;48241;48.824;10.102;2023-08-31T06:00:59;15.80;96.80
62259;DHT22;48241;48.824;10.102;2023-08-31T06:03:25;15.70;97.20
62259;DHT22;48241;48.824;10.102;2023-08-31T06:05:51;16.10;96.70
62259;DHT22;48241;48.824;10.102;2023-08-31T06:08:16;16.20;97.50
62259;DHT22;48241;48.824;10.102;2023-08-31T06:10:42;16.40;97.30
62259;DHT22;48241;48.824;10.102;2023-08-31T06:13:07;16.90;96.10
62259;DHT22;48241;48.824;10.102;2023-08-31T06:15:33;17.10;95.20
62259;DHT22;48241;48.824;10.102;2023-08-31T06:17:59;17.30;94.00
62259;DHT22;48241;48.824;10.102;2023-08-31T06:20:24;17.30;94.10
62259;DHT22;48241;48.824;10.102;2023-08-31T06:22:50;17.10;94.20
62259;DHT22;48241;48.824;10.102;2023-08-31T06:25:15;17.20;94.20
62259;DHT22;48241;48.824;10.102;2023-08-31T06:27:43;17.10;94.10
62259;DHT22;48241;48.824;10.102;2023-08-31T06:30:10;17.10;93.70
62259;DHT22;48241;48.824;10.102;2023-08-31T06:32:42;17.20;94.00
62259;DHT22;48241;48.824;10.102;2023-08-31T06:35:07;17.40;94.00
62259;DHT22;48241;48.824;10.102;2023-08-31T06:37:33;17.50;93.80
62259;DHT22;48241;48.824;10.102;2023-08-31T06:39:59;17.90;93.10
62259;DHT22;48241;48.824;10.102;2023-08-31T06:42:24;18.10;92.30
62259;DHT22;48241;48.824;10.102;2023-08-31T06:44:50;18.40;92.40
62259;DHT22;48241;48.824;10.102;2023-08-31T06:47:16;18.40;92.30
62259;DHT22;48241;48.824;10.102;2023-08-31T06:49:43;18.50;92.20
62259;DHT22;48241;48.824;10.102;2023-08-31T06:52:08;18.70;91.80
62259;DHT22;48241;48.824;10.102;2023-08-31T06:54:34;18.40;92.00
62259;DHT22;48241;48.824;10.102;2023-08-31T06:56:59;18.10;92.00
62259;DHT22;48241;48.824;10.102;2023-08-31T06:59:25;18.00;92.30
62259;DHT22;48241;48.824;10.102;2023-08-31T07:01:51;18.00;92.40
62259;DHT22;48241;48.824;10.102;2023-08-31T07:04:17;18.10;91.90
62259;DHT22;48241;48.824;10.102;2023-08-31T07:06:42;18.30;92.20
62259;DHT22;48241;48.824;10.102;2023-08-31T07:09:08;18.80;91.50
62259;DHT22;48241;48.824;10.102;2023-08-31T07:11:34;19.00;90.40
62259;DHT22;48241;48.824;10.102;2023-08-31T07:14:00;19.20;90.00
62259;DHT22;48241;48.824;10.102;2023-08-31T07:16:25;19.20;88.60
62259;DHT22;48241;48.824;10.102;2023-08-31T07:18:51;19.40;90.10
62259;DHT22;48241;48.824;10.102;2023-08-31T07:21:17;19.70;87.40
62259;DHT22;48241;48.824;10.102;2023-08-31T07:23:42;19.40;88.30
62259;DHT22;48241;48.824;10.102;2023-08-31T07:26:08;19.60;89.60
62259;DHT22;48241;48.824;10.102;2023-08-31T07:28:34;19.80;87.80
62259;DHT22;48241;48.824;10.102;2023-08-31T07:31:03;20.40;86.50
62259;DHT22;48241;48.824;10.102;2023-08-31T07:33:33;20.80;83.30
62259;DHT22;48241;48.824;10.102;2023-08-31T07:36:00;20.80;79.70
62259;DHT22;48241;48.824;10.102;2023-08-31T07:38:27;20.20;82.00
62259;DHT22;48241;48.824;10.102;2023-08-31T07:40:53;20.70;79.70
62259;DHT22;48241;48.824;10.102;2023-08-31T07:43:19;22.00;75.80
62259;DHT22;48241;48.824;10.102;2023-08-31T07:45:44;22.70;70.70
62259;DHT22;48241;48.824;10.102;2023-08-31T07:48:10;23.20;68.60
62259;DHT22;48241;48.824;10.102;2023-08-31T07:50:35;23.50;68.80
62259;DHT22;48241;48.824;10.102;2023-08-31T07:53:01;24.70;66.70
62259;DHT22;48241;48.824;10.102;2023-08-31T07:55:27;25.20;64.00
62259;DHT22;48241;48.824;10.102;2023-08-31T07:57:52;26.00;60.50
62259;DHT22;48241;48.824;10.102;2023-08-31T08:00:18;26.50;57.60
62259;DHT22;48241;48.824;10.102;2023-08-31T08:02:47;26.10;57.70
62259;DHT22;48241;48.824;10.102;2023-08-31T08:05:12;28.20;57.70
62259;DHT22;48241;48.824;10.102;2023-08-31T08:07:38;28.80;52.30
62259;DHT22;48241;48.824;10.102;2023-08-31T08:10:04;26.80;53.90
62259;DHT22;48241;48.824;10.102;2023-08-31T08:12:41;26.10;54.60
62259;DHT22;48241;48.824;10.102;2023-08-31T08:15:08;25.80;56.50
62259;DHT22;48241;48.824;10.102;2023-08-31T08:17:34;25.30;59.20
62259;DHT22;48241;48.824;10.102;2023-08-31T08:20:00;25.70;57.90
62259;DHT22;48241;48.824;10.102;2023-08-31T08:22:25;26.10;54.10
62259;DHT22;48241;48.824;10.102;2023-08-31T08:24:51;26.20;53.80
62259;DHT22;48241;48.824;10.102;2023-08-31T08:27:17;26.90;51.50
62259;DHT22;48241;48.824;10.102;2023-08-31T08:29:46;26.50;52.80
62259;DHT22;48241;48.824;10.102;2023-08-31T08:32:12;26.90;53.30
62259;DHT22;48241;48.824;10.102;2023-08-31T08:34:37;26.60;54.10
62259;DHT22;48241;48.824;10.102;2023-08-31T08:37:03;26.70;51.40
62259;DHT22;48241;48.824;10.102;2023-08-31T08:39:29;26.60;50.60
62259;DHT22;48241;48.824;10.102;2023-08-31T08:41:58;26.50;49.80
62259;DHT22;48241;48.824;10.102;2023-08-31T08:44:25;26.90;51.10
62259;DHT22;48241;48.824;10.102;2023-08-31T08:46:52;27.10;51.30
62259;DHT22;48241;48.824;10.102;2023-08-31T08:49:18;28.00;48.70
62259;DHT22;48241;48.824;10.102;2023-08-31T08:51:47;28.80;49.60
62259;DHT22;48241;48.824;10.102;2023-08-31T08:54:13;30.40;46.90
62259;DHT22;48241;48.824;10.102;2023-08-31T08:56:39;30.50;44.70
62259;DHT22;48241;48.824;10.102;2023-08-31T08:59:05;29.60;43.80
62259;DHT22;48241;48.824;10.102;2023-08-31T09:01:33;29.90;42.80
62259;DHT22;48241;48.824;10.102;2023-08-31T09:04:00;29.70;43.30
62259;DHT22;48241;48.824;10.102;2023-08-31T09:06:27;29.30;44.60
62259;DHT22;48241;48.824;10.102;2023-08-31T09:08:56;29.40;44.80
62259;DHT22;48241;48.824;10.102;2023-08-31T09:11:23;29.90;43.00
62259;DHT22;48241;48.824;10.102;2023-08-31T09:13:49;30.40;44.00
62259;DHT22;48241;48.824;10.102;2023-08-31T09:16:29;30.40;41.40
62259;DHT22;48241;48.824;10.102;2023-08-31T09:18:56;30.90;41.70
62259;DHT22;48241;48.824;10.102;2023-08-31T09:21:23;30.40;40.70
62259;DHT22;48241;48.824;10.102;2023-08-31T09:23:59;30.50;41.70
62259;DHT22;48241;48.824;10.102;2023-08-31T09:26:25;31.00;39.00
62259;DHT22;48241;48.824;10.102;2023-08-31T09:28:51;29.70;41.30
62259;DHT22;48241;48.824;10.102;2023-08-31T09:31:17;28.20;41.80
62259;DHT22;48241;48.824;10.102;2023-08-31T09:33:52;27.70;44.70
62259;DHT22;48241;48.824;10.102;2023-08-31T09:36:20;28.00;43.10
62259;DHT22;48241;48.824;10.102;2023-08-31T09:38:46;30.10;43.80
62259;DHT22;48241;48.824;10.102;2023-08-31T09:41:12;30.60;37.70
62259;DHT22;48241;48.824;10.102;2023-08-31T09:43:37;31.00;37.10
62259;DHT22;48241;48.824;10.102;2023-08-31T09:46:04;31.60;39.20
62259;DHT22;48241;48.824;10.102;2023-08-31T09:48:30;30.10;36.90
62259;DHT22;48241;48.824;10.102;2023-08-31T09:50:57;30.80;38.20
62259;DHT22;48241;48.824;10.102;2023-08-31T09:53:29;31.00;35.50
62259;DHT22;48241;48.824;10.102;2023-08-31T09:55:56;29.40;35.40
62259;DHT22;48241;48.824;10.102;2023-08-31T09:58:22;28.40;40.60
62259;DHT22;48241;48.824;10.102;2023-08-31T10:00:49;27.60;39.30
62259;DHT22;48241;48.824;10.102;2023-08-31T10:03:15;25.90;41.10
62259;DHT22;48241;48.824;10.102;2023-08-31T10:05:43;25.40;43.40
62259;DHT22;48241;48.824;10.102;2023-08-31T10:08:10;24.70;43.70
62259;DHT22;48241;48.824;10.102;2023-08-31T10:10:37;24.10;44.90
62259;DHT22;48241;48.824;10.102;2023-08-31T10:13:04;23.20;47.60
62259;DHT22;48241;48.824;10.102;2023-08-31T10:15:34;22.50;50.20
62259;DHT22;48241;48.824;10.102;2023-08-31T10:18:02;22.00;50.80
62259;DHT22;48241;48.824;10.102;2023-08-31T10:20:29;21.90;51.10
62259;DHT22;48241;48.824;10.102;2023-08-31T10:22:58;21.30;51.20
62259;DHT22;48241;48.824;10.102;2023-08-31T10:25:23;20.90;55.10
62259;DHT22;48241;48.824;10.102;2023-08-31T10:27:49;20.80;57.30
62259;DHT22;48241;48.824;10.102;2023-08-31T10:30:25;20.50;57.10
62259;DHT22;48241;48.824;10.102;2023-08-31T10:38:17;21.80;54.80
62259;DHT22;48241;48.824;10.102;2023-08-31T10:43:55;21.90;57.20
62259;DHT22;48241;48.824;10.102;2023-08-31T10:48:57;22.20;55.80
62259;DHT22;48241;48.824;10.102;2023-08-31T10:51:24;22.40;58.90
62259;DHT22;48241;48.824;10.102;2023-08-31T10:53:50;22.70;57.00
62259;DHT22;48241;48.824;10.102;2023-08-31T10:56:17;23.00;59.10
62259;DHT22;48241;48.824;10.102;2023-08-31T10:58:54;23.10;54.00
62259;DHT22;48241;48.824;10.102;2023-08-31T11:01:53;23.60;54.80
62259;DHT22;48241;48.824;10.102;2023-08-31T11:04:26;23.60;53.80
62259;DHT22;48241;48.824;10.102;2023-08-31T11:09:36;22.50;54.30
62259;DHT22;48241;48.824;10.102;2023-08-31T11:12:03;22.00;56.30
62259;DHT22;48241;48.824;10.102;2023-08-31T11:14:29;21.40;56.50
62259;DHT22;48241;48.824;10.102;2023-08-31T11:16:55;21.10;57.50
62259;DHT22;48241;48.824;10.102;2023-08-31T11:19:21;20.90;56.80
62259;DHT22;48241;48.824;10.102;2023-08-31T11:21:46;20.70;58.30
62259;DHT22;48241;48.824;10.102;2023-08-31T11:24:12;20.70;56.30
62259;DHT22;48241;48.824;10.102;2023-08-31T11:26:38;21.10;58.60
62259;DHT22;48241;48.824;10.102;2023-08-31T11:29:07;21.70;58.90
62259;DHT22;48241;48.824;10.102;2023-08-31T11:31:37;22.10;55.80
62259;DHT22;48241;48.824;10.102;2023-08-31T11:34:05;21.90;56.00
62259;DHT22;48241;48.824;10.102;2023-08-31T11:36:31;21.60;57.30
62259;DHT22;48241;48.824;10.102;2023-08-31T11:38:57;21.40;57.90
62259;DHT22;48241;48.824;10.102;2023-08-31T11:41:23;21.30;60.00
62259;DHT22;48241;48.824;10.102;2023-08-31T11:43:49;21.10;62.20
62259;DHT22;48241;48.824;10.102;2023-08-31T11:46:16;21.00;57.60
62259;DHT22;48241;48.824;10.102;2023-08-31T11:48:43;21.00;59.10
62259;DHT22;48241;48.824;10.102;2023-08-31T11:51:09;20.80;58.30
62259;DHT22;48241;48.824;10.102;2023-08-31T11:53:35;21.00;58.50
62259;DHT22;48241;48.824;10.102;2023-08-31T11:56:04;21.40;56.60
62259;DHT22;48241;48.824;10.102;2023-08-31T11:58:30;21.60;56.10
62259;DHT22;48241;48.824;10.102;2023-08-31T12:00:59;21.90;57.30
62259;DHT22;48241;48.824;10.102;2023-08-31T12:03:26;22.40;54.60
62259;DHT22;48241;48.824;10.102;2023-08-31T12:05:53;22.80;54.80
62259;DHT22;48241;48.824;10.102;2023-08-31T12:08:27;23.00;54.90
62259;DHT22;48241;48.824;10.102;2023-08-31T12:10:53;23.00;56.10
62259;DHT22;48241;48.824;10.102;2023-08-31T12:13:25;22.80;53.90
62259;DHT22;48241;48.824;10.102;2023-08-31T12:15:52;22.80;53.50
62259;DHT22;48241;48.824;10.102;2023-08-31T12:18:19;22.30;54.30
62259;DHT22;48241;48.824;10.102;2023-08-31T12:20:47;22.30;56.40
62259;DHT22;48241;48.824;10.102;2023-08-31T12:23:16;22.60;55.20
62259;DHT22;48241;48.824;10.102;2023-08-31T12:26:00;21.80;54.80
62259;DHT22;48241;48.824;10.102;2023-08-31T12:28:26;21.50;56.30
62259;DHT22;48241;48.824;10.102;2023-08-31T12:30:53;21.60;56.20
62259;DHT22;48241;48.824;10.102;2023-08-31T12:33:20;21.20;53.40
62259;DHT22;48241;48.824;10.102;2023-08-31T12:35:46;21.30;57.40
62259;DHT22;48241;48.824;10.102;2023-08-31T12:38:12;21.50;56.50
62259;DHT22;48241;48.824;10.102;2023-08-31T12:40:38;21.50;56.50
62259;DHT22;48241;48.824;10.102;2023-08-31T12:43:04;21.40;54.70
62259;DHT22;48241;48.824;10.102;2023-08-31T12:45:30;20.90;56.70
62259;DHT22;48241;48.824;10.102;2023-08-31T12:47:56;21.10;57.20
62259;DHT22;48241;48.824;10.102;2023-08-31T12:50:21;21.10;55.10
62259;DHT22;48241;48.824;10.102;2023-08-31T12:52:47;21.00;57.20
62259;DHT22;48241;48.824;10.102;2023-08-31T12:55:16;21.20;55.20
62259;DHT22;48241;48.824;10.102;2023-08-31T12:57:42;21.50;55.40
62259;DHT22;48241;48.824;10.102;2023-08-31T13:00:09;21.70;54.70
62259;DHT22;48241;48.824;10.102;2023-08-31T13:02:40;22.00;56.50
62259;DHT22;48241;48.824;10.102;2023-08-31T13:05:08;22.40;53.20
62259;DHT22;48241;48.824;10.102;2023-08-31T13:07:36;22.40;51.90
62259;DHT22;48241;48.824;10.102;2023-08-31T13:10:02;22.20;52.20
62259;DHT22;48241;48.824;10.102;2023-08-31T13:12:30;21.70;53.40
62259;DHT22;48241;48.824;10.102;2023-08-31T13:14:56;21.70;53.50
62259;DHT22;48241;48.824;10.102;2023-08-31T13:17:22;22.00;55.20
62259;DHT22;48241;48.824;10.102;2023-08-31T13:19:55;21.50;55.40
62259;DHT22;48241;48.824;10.102;2023-08-31T13:22:21;21.70;52.30
62259;DHT22;48241;48.824;10.102;2023-08-31T13:24:47;22.20;54.50
62259;DHT22;48241;48.824;10.102;2023-08-31T13:27:12;22.40;51.30
62259;DHT22;48241;48.824;10.102;2023-08-31T13:29:41;22.80;51.00
62259;DHT22;48241;48.824;10.102;2023-08-31T13:32:07;23.00;51.30
62259;DHT22;48241;48.824;10.102;2023-08-31T13:34:33;23.20;50.30
62259;DHT22;48241;48.824;10.102;2023-08-31T13:36:58;23.40;51.70
62259;DHT22;48241;48.824;10.102;2023-08-31T13:39:26;23.60;50.20
62259;DHT22;48241;48.824;10.102;2023-08-31T13:41:51;23.90;48.60
62259;DHT22;48241;48.824;10.102;2023-08-31T13:44:19;24.10;50.60
62259;DHT22;48241;48.824;10.102;2023-08-31T13:46:45;24.20;50.70
62259;DHT22;48241;48.824;10.102;2023-08-31T13:49:11;23.90;51.40
62259;DHT22;48241;48.824;10.102;2023-08-31T13:51:36;23.90;51.00
62259;DHT22;48241;48.824;10.102;2023-08-31T13:54:02;23.60;50.10
62259;DHT22;48241;48.824;10.102;2023-08-31T13:56:29;23.40;51.80
62259;DHT22;48241;48.824;10.102;2023-08-31T13:58:55;23.30;50.90
62259;DHT22;48241;48.824;10.102;2023-08-31T14:01:20;23.20;53.70
62259;DHT22;48241;48.824;10.102;2023-08-31T14:03:46;23.20;49.60
62259;DHT22;48241;48.824;10.102;2023-08-31T14:06:11;23.30;50.40
62259;DHT22;48241;48.824;10.102;2023-08-31T14:08:37;23.60;51.70
62259;DHT22;48241;48.824;10.102;2023-08-31T14:11:03;23.70;51.80
62259;DHT22;48241;48.824;10.102;2023-08-31T14:13:28;23.60;50.80
62259;DHT22;48241;48.824;10.102;2023-08-31T14:15:54;23.50;50.70
62259;DHT22;48241;48.824;10.102;2023-08-31T14:18:19;23.40;52.20
62259;DHT22;48241;48.824;10.102;2023-08-31T14:20:45;23.00;55.00
62259;DHT22;48241;48.824;10.102;2023-08-31T14:23:10;22.50;51.30
62259;DHT22;48241;48.824;10.102;2023-08-31T14:25:37;22.20;56.20
62259;DHT22;48241;48.824;10.102;2023-08-31T14:28:05;22.40;53.40
62259;DHT22;48241;48.824;10.102;2023-08-31T14:30:31;22.70;52.50
62259;DHT22;48241;48.824;10.102;2023-08-31T14:32:56;23.00;51.80
62259;DHT22;48241;48.824;10.102;2023-08-31T14:35:22;23.20;52.80
62259;DHT22;48241;48.824;10.102;2023-08-31T14:37:48;23.20;53.90
62259;DHT22;48241;48.824;10.102;2023-08-31T14:40:13;23.60;57.20
62259;DHT22;48241;48.824;10.102;2023-08-31T14:42:40;23.70;53.80
62259;DHT22;48241;48.824;10.102;2023-08-31T14:45:06;23.40;54.40
62259;DHT22;48241;48.824;10.102;2023-08-31T14:47:32;23.40;57.50
62259;DHT22;48241;48.824;10.102;2023-08-31T14:49:57;23.20;53.00
62259;DHT22;48241;48.824;10.102;2023-08-31T14:52:23;23.10;57.20
62259;DHT22;48241;48.824;10.102;2023-08-31T14:54:49;23.20;58.80
62259;DHT22;48241;48.824;10.102;2023-08-31T14:57:15;23.30;60.50
62259;DHT22;48241;48.824;10.102;2023-08-31T14:59:41;23.20;59.40
62259;DHT22;48241;48.824;10.102;2023-08-31T15:02:07;23.30;56.40
62259;DHT22;48241;48.824;10.102;2023-08-31T15:04:33;23.50;56.00
62259;DHT22;48241;48.824;10.102;2023-08-31T15:06:58;23.70;56.80
62259;DHT22;48241;48.824;10.102;2023-08-31T15:09:25;23.50;59.50
62259;DHT22;48241;48.824;10.102;2023-08-31T15:11:51;23.20;61.50
62259;DHT22;48241;48.824;10.102;2023-08-31T15:14:16;23.20;58.90
62259;DHT22;48241;48.824;10.102;2023-08-31T15:16:42;23.20;55.60
62259;DHT22;48241;48.824;10.102;2023-08-31T15:19:08;23.10;61.90
62259;DHT22;48241;48.824;10.102;2023-08-31T15:21:34;23.20;59.60
62259;DHT22;48241;48.824;10.102;2023-08-31T15:24:00;23.20;58.10
62259;DHT22;48241;48.824;10.102;2023-08-31T15:26:25;23.20;59.30
62259;DHT22;48241;48.824;10.102;2023-08-31T15:28:51;23.10;59.10
62259;DHT22;48241;48.824;10.102;2023-08-31T15:31:17;22.70;64.90
62259;DHT22;48241;48.824;10.102;2023-08-31T15:33:43;22.40;59.40
62259;DHT22;48241;48.824;10.102;2023-08-31T15:36:09;22.30;58.50